createdAt,value
2019-02-25T00:00:10.577Z,25.60
2019-02-25T00:00:45.943Z,32.10
2019-02-25T00:01:21.050Z,28.90
2019-02-25T00:01:56.569Z,22.10
2019-02-25T00:02:31.969Z,20.00
2019-02-25T00:03:07.186Z,25.00
2019-02-25T00:03:42.281Z,32.70
2019-02-25T00:04:17.818Z,31.50
2019-02-25T00:04:53.332Z,23.50
2019-02-25T00:05:28.569Z,21.40
2019-02-25T00:06:03.995Z,23.70
2019-02-25T00:06:39.430Z,27.30
2019-02-25T00:07:14.801Z,25.60
2019-02-25T00:07:50.017Z,26.30
2019-02-25T00:08:25.231Z,27.80
2019-02-25T00:09:00.647Z,25.60
2019-02-25T00:09:36.050Z,24.50
2019-02-25T00:10:11.789Z,25.00
2019-02-25T00:10:47.431Z,25.20
2019-02-25T00:11:23.065Z,26.50
2019-02-25T00:11:58.261Z,25.70
2019-02-25T00:12:33.705Z,25.30
2019-02-25T00:13:08.922Z,23.20
2019-02-25T00:13:44.429Z,20.60
2019-02-25T00:14:19.738Z,25.10
2019-02-25T00:14:55.159Z,25.00
2019-02-25T00:15:30.398Z,23.70
2019-02-25T00:16:05.846Z,23.10
2019-02-25T00:16:41.468Z,24.40
2019-02-25T00:17:16.786Z,26.10
2019-02-25T00:17:52.203Z,25.20
2019-02-25T00:18:27.619Z,27.60
2019-02-25T00:19:03.051Z,28.50
2019-02-25T00:19:38.501Z,27.80
2019-02-25T00:20:14.202Z,25.60
2019-02-25T00:20:49.762Z,22.70
2019-02-25T00:21:24.956Z,24.20
2019-02-25T00:22:00.492Z,26.40
2019-02-25T00:22:35.696Z,26.40
2019-02-25T00:23:10.848Z,28.20
2019-02-25T00:23:46.239Z,24.60
2019-02-25T00:24:21.477Z,20.10
2019-02-25T00:24:56.687Z,25.90
2019-02-25T00:25:32.066Z,28.10
2019-02-25T00:26:07.823Z,30.40
2019-02-25T00:26:43.181Z,29.60
2019-02-25T00:27:18.611Z,24.50
2019-02-25T00:27:54.230Z,21.60
2019-02-25T00:28:29.715Z,21.20
2019-02-25T00:29:05.180Z,22.60
2019-02-25T00:29:40.840Z,25.00
2019-02-25T00:30:16.160Z,28.90
2019-02-25T00:30:51.387Z,29.40
2019-02-25T00:31:26.815Z,26.10
2019-02-25T00:32:02.212Z,22.20
2019-02-25T00:32:37.574Z,20.70
2019-02-25T00:33:12.869Z,23.90
2019-02-25T00:33:48.291Z,28.40
2019-02-25T00:34:23.768Z,27.90
2019-02-25T00:34:59.504Z,22.10
2019-02-25T00:35:34.791Z,25.40
2019-02-25T00:36:10.137Z,26.70
2019-02-25T00:36:45.424Z,26.00
2019-02-25T00:37:20.566Z,24.50
2019-02-25T00:37:55.862Z,26.20
2019-02-25T00:38:31.077Z,26.00
2019-02-25T00:39:06.388Z,23.50
2019-02-25T00:39:41.933Z,20.80
2019-02-25T00:40:17.223Z,25.90
2019-02-25T00:40:52.855Z,28.10
2019-02-25T00:41:28.369Z,26.70
2019-02-25T00:42:03.893Z,29.40
2019-02-25T00:42:39.175Z,25.80
2019-02-25T00:43:14.615Z,23.20
2019-02-25T00:43:49.891Z,25.40
2019-02-25T00:44:25.222Z,27.60
2019-02-25T00:45:00.325Z,28.80
2019-02-25T00:45:35.626Z,26.00
2019-02-25T00:46:11.323Z,25.30
2019-02-25T00:46:46.767Z,24.20
2019-02-25T00:47:22.064Z,24.10
2019-02-25T00:47:57.584Z,25.80
2019-02-25T00:48:32.877Z,28.20
2019-02-25T00:49:08.110Z,27.30
2019-02-25T00:49:43.612Z,21.60
2019-02-25T00:50:19.064Z,19.90
2019-02-25T00:50:54.129Z,18.10
2019-02-25T00:51:29.456Z,20.10
2019-02-25T00:52:05.055Z,24.70
2019-02-25T00:52:40.389Z,24.80
2019-02-25T00:53:15.581Z,22.70
2019-02-25T00:53:50.812Z,23.00
2019-02-25T00:54:26.307Z,24.30
2019-02-25T00:55:01.948Z,27.60
2019-02-25T00:55:37.328Z,26.40
2019-02-25T00:56:12.344Z,26.70
2019-02-25T00:56:47.745Z,23.00
2019-02-25T00:57:23.192Z,21.60
2019-02-25T00:57:58.585Z,21.80
2019-02-25T00:58:34.216Z,25.40
2019-02-25T00:59:09.306Z,27.80
2019-02-25T00:59:44.735Z,25.20
2019-02-25T01:00:20.133Z,22.70
2019-02-25T01:00:55.448Z,21.30
2019-02-25T01:01:30.865Z,22.70
2019-02-25T01:02:06.633Z,23.00
2019-02-25T01:02:41.828Z,27.30
2019-02-25T01:03:17.346Z,25.10
2019-02-25T01:03:52.445Z,23.50
2019-02-25T01:04:27.660Z,20.80
2019-02-25T01:05:03.065Z,19.90
2019-02-25T01:05:38.513Z,23.20
2019-02-25T01:06:14.016Z,27.00
2019-02-25T01:06:49.470Z,25.90
2019-02-25T01:07:25.170Z,25.60
2019-02-25T01:08:00.721Z,26.20
2019-02-25T01:08:35.998Z,22.70
2019-02-25T01:09:11.111Z,24.20
2019-02-25T01:09:46.727Z,28.10
2019-02-25T01:10:21.981Z,29.00
2019-02-25T01:10:57.384Z,24.40
2019-02-25T01:11:32.817Z,25.90
2019-02-25T01:12:08.229Z,21.90
2019-02-25T01:12:43.649Z,21.20
2019-02-25T01:13:19.078Z,23.20
2019-02-25T01:13:54.316Z,26.10
2019-02-25T01:14:29.706Z,26.10
2019-02-25T01:15:04.937Z,22.80
2019-02-25T01:15:40.027Z,21.80
2019-02-25T01:16:15.555Z,24.10
2019-02-25T01:16:50.865Z,26.50
2019-02-25T01:17:26.099Z,27.60
2019-02-25T01:18:01.394Z,26.40
2019-02-25T01:18:36.818Z,23.50
2019-02-25T01:19:12.137Z,22.80
2019-02-25T01:19:47.604Z,25.90
2019-02-25T01:20:22.789Z,28.50
2019-02-25T01:20:58.531Z,30.60
2019-02-25T01:21:34.128Z,31.40
2019-02-25T01:22:09.446Z,26.20
2019-02-25T01:22:44.942Z,27.30
2019-02-25T01:23:20.204Z,26.90
2019-02-25T01:23:55.520Z,25.50
2019-02-25T01:24:31.160Z,29.20
2019-02-25T01:25:06.655Z,27.20
2019-02-25T01:25:42.155Z,27.00
2019-02-25T01:26:17.569Z,27.20
2019-02-25T01:26:52.614Z,24.70
2019-02-25T01:27:28.302Z,24.10
2019-02-25T01:28:03.725Z,27.20
2019-02-25T01:28:39.331Z,31.60
2019-02-25T01:29:14.958Z,31.70
2019-02-25T01:29:50.365Z,29.50
2019-02-25T01:30:25.778Z,28.20
2019-02-25T01:31:01.369Z,26.70
2019-02-25T01:31:36.918Z,25.60
2019-02-25T01:32:12.104Z,28.20
2019-02-25T01:32:47.440Z,31.10
2019-02-25T01:33:23.013Z,36.80
2019-02-25T01:33:58.351Z,29.80
2019-02-25T01:34:33.443Z,29.10
2019-02-25T01:35:09.050Z,26.10
2019-02-25T01:35:44.369Z,28.40
2019-02-25T01:36:19.797Z,33.20
2019-02-25T01:36:55.431Z,31.90
2019-02-25T01:37:30.658Z,28.40
2019-02-25T01:38:06.252Z,27.70
2019-02-25T01:38:41.530Z,25.30
2019-02-25T01:39:17.046Z,25.80
2019-02-25T01:39:52.377Z,26.20
2019-02-25T01:40:27.764Z,30.50
2019-02-25T01:41:03.107Z,32.90
2019-02-25T01:41:38.605Z,28.10
2019-02-25T01:42:14.033Z,25.90
2019-02-25T01:42:49.332Z,27.40
2019-02-25T01:43:24.867Z,29.00
2019-02-25T01:44:00.357Z,27.50
2019-02-25T01:44:35.492Z,29.30
2019-02-25T01:45:11.568Z,30.30
2019-02-25T01:45:47.194Z,30.30
2019-02-25T01:46:22.489Z,29.70
2019-02-25T01:46:57.864Z,29.80
2019-02-25T01:47:33.161Z,28.60
2019-02-25T01:48:08.470Z,28.80
2019-02-25T01:48:43.761Z,30.90
2019-02-25T01:49:19.073Z,31.20
2019-02-25T01:49:54.858Z,30.70
2019-02-25T01:50:30.378Z,28.30
2019-02-25T01:51:05.661Z,30.00
2019-02-25T01:51:41.115Z,32.40
2019-02-25T01:52:16.412Z,28.90
2019-02-25T01:52:51.833Z,31.80
2019-02-25T01:53:27.536Z,33.30
2019-02-25T01:54:02.684Z,35.10
2019-02-25T01:54:37.964Z,29.70
2019-02-25T01:55:13.298Z,26.20
2019-02-25T01:55:48.906Z,25.20
2019-02-25T01:56:24.154Z,26.30
2019-02-25T01:56:59.444Z,28.50
2019-02-25T01:57:34.781Z,27.80
2019-02-25T01:58:10.168Z,31.50
2019-02-25T01:58:45.528Z,26.00
2019-02-25T01:59:21.027Z,24.20
2019-02-25T01:59:56.643Z,29.50
2019-02-25T02:00:31.847Z,31.10
2019-02-25T02:01:07.058Z,29.30
2019-02-25T02:01:42.593Z,30.60
2019-02-25T02:02:17.915Z,27.00
2019-02-25T02:02:53.408Z,27.60
2019-02-25T02:03:29.026Z,29.30
2019-02-25T02:04:04.408Z,26.20
2019-02-25T02:04:39.825Z,29.60
2019-02-25T02:05:15.216Z,28.60
2019-02-25T02:05:50.356Z,26.40
2019-02-25T02:06:25.678Z,24.50
2019-02-25T02:07:01.017Z,27.20
2019-02-25T02:07:36.310Z,30.60
2019-02-25T02:08:11.627Z,29.90
2019-02-25T02:08:47.250Z,30.30
2019-02-25T02:09:22.475Z,26.90
2019-02-25T02:09:57.858Z,26.10
2019-02-25T02:10:33.373Z,30.00
2019-02-25T02:11:08.746Z,30.20
2019-02-25T02:11:43.891Z,28.20
2019-02-25T02:12:19.288Z,28.50
2019-02-25T02:12:54.914Z,29.50
2019-02-25T02:13:30.300Z,27.50
2019-02-25T02:14:05.613Z,26.50
2019-02-25T02:14:40.919Z,26.80
2019-02-25T02:15:16.339Z,27.10
2019-02-25T02:15:51.631Z,26.80
2019-02-25T02:16:26.950Z,26.80
2019-02-25T02:17:02.368Z,26.10
2019-02-25T02:17:38.078Z,26.40
2019-02-25T02:18:13.666Z,28.20
2019-02-25T02:18:49.268Z,31.40
2019-02-25T02:19:24.866Z,36.10
2019-02-25T02:20:00.285Z,36.30
2019-02-25T02:20:35.365Z,32.50
2019-02-25T02:21:10.994Z,28.00
2019-02-25T02:21:46.133Z,25.70
2019-02-25T02:22:21.447Z,29.00
2019-02-25T02:22:56.954Z,35.30
2019-02-25T02:23:32.665Z,34.50
2019-02-25T02:24:07.974Z,34.30
2019-02-25T02:24:43.152Z,35.60
2019-02-25T02:25:18.347Z,30.30
2019-02-25T02:25:53.879Z,30.00
2019-02-25T02:26:29.312Z,32.40
2019-02-25T02:27:04.523Z,30.80
2019-02-25T02:27:40.014Z,32.10
2019-02-25T02:28:15.543Z,37.30
2019-02-25T02:28:50.645Z,32.80
2019-02-25T02:29:26.065Z,32.30
2019-02-25T02:30:01.373Z,37.50
2019-02-25T02:30:36.805Z,36.60
2019-02-25T02:31:11.779Z,29.20
2019-02-25T02:31:46.939Z,30.10
2019-02-25T02:32:22.222Z,33.50
2019-02-25T02:32:57.422Z,37.20
2019-02-25T02:33:32.545Z,39.00
2019-02-25T02:34:07.951Z,32.30
2019-02-25T02:34:43.360Z,28.70
2019-02-25T02:35:18.678Z,29.80
2019-02-25T02:35:54.076Z,33.40
2019-02-25T02:36:29.421Z,32.00
2019-02-25T02:37:04.714Z,32.90
2019-02-25T02:37:39.850Z,29.50
2019-02-25T02:38:15.430Z,29.90
2019-02-25T02:38:50.840Z,33.90
2019-02-25T02:39:26.133Z,35.70
2019-02-25T02:40:01.687Z,33.80
2019-02-25T02:40:36.933Z,33.80
2019-02-25T02:41:12.564Z,28.10
2019-02-25T02:41:47.888Z,27.00
2019-02-25T02:42:23.208Z,30.40
2019-02-25T02:42:58.393Z,33.40
2019-02-25T02:43:33.927Z,32.70
2019-02-25T02:44:09.019Z,34.20
2019-02-25T02:44:44.135Z,34.20
2019-02-25T02:45:19.524Z,32.60
2019-02-25T02:45:54.848Z,33.70
2019-02-25T02:46:30.263Z,36.00
2019-02-25T02:47:05.472Z,34.90
2019-02-25T02:47:40.761Z,31.90
2019-02-25T02:48:16.481Z,28.70
2019-02-25T02:48:51.881Z,26.10
2019-02-25T02:49:27.191Z,28.70
2019-02-25T02:50:02.482Z,32.30
2019-02-25T02:50:37.705Z,29.40
2019-02-25T02:51:12.989Z,26.90
2019-02-25T02:51:48.379Z,29.70
2019-02-25T02:52:23.674Z,32.20
2019-02-25T02:52:59.092Z,33.10
2019-02-25T02:53:34.597Z,28.90
2019-02-25T02:54:10.507Z,26.90
2019-02-25T02:54:45.626Z,27.50
2019-02-25T02:55:20.947Z,29.50
2019-02-25T02:55:56.254Z,31.50
2019-02-25T02:56:31.607Z,33.20
2019-02-25T02:57:06.795Z,31.70
2019-02-25T02:57:42.053Z,28.00
2019-02-25T02:58:17.351Z,29.10
2019-02-25T02:58:52.765Z,28.20
2019-02-25T02:59:28.153Z,28.50
2019-02-25T03:00:03.371Z,32.80
2019-02-25T03:00:38.648Z,32.90
2019-02-25T03:01:13.961Z,28.90
2019-02-25T03:01:49.381Z,27.10
2019-02-25T03:02:25.077Z,30.30
2019-02-25T03:03:00.482Z,31.40
2019-02-25T03:03:35.820Z,33.00
2019-02-25T03:04:11.215Z,31.30
2019-02-25T03:04:46.447Z,29.40
2019-02-25T03:05:21.941Z,28.30
2019-02-25T03:05:57.201Z,27.30
2019-02-25T03:06:32.699Z,28.80
2019-02-25T03:07:08.009Z,30.80
2019-02-25T03:07:43.200Z,34.60
2019-02-25T03:08:18.423Z,33.10
2019-02-25T03:08:53.622Z,30.30
2019-02-25T03:09:28.745Z,28.00
2019-02-25T03:10:04.336Z,26.60
2019-02-25T03:10:39.950Z,27.70
2019-02-25T03:11:15.034Z,27.70
2019-02-25T03:11:50.165Z,27.80
2019-02-25T03:12:25.472Z,28.90
2019-02-25T03:13:00.789Z,30.80
2019-02-25T03:13:36.428Z,31.40
2019-02-25T03:14:11.856Z,28.40
2019-02-25T03:14:47.241Z,29.10
2019-02-25T03:15:22.474Z,27.90
2019-02-25T03:16:00.165Z,27.60
2019-02-25T03:16:35.929Z,28.10
2019-02-25T03:17:11.220Z,28.90
2019-02-25T03:17:46.547Z,29.50
2019-02-25T03:18:22.025Z,29.70
2019-02-25T03:18:57.454Z,28.80
2019-02-25T03:19:32.731Z,28.70
2019-02-25T03:20:08.348Z,31.30
2019-02-25T03:20:43.538Z,35.30
2019-02-25T03:21:19.254Z,37.20
2019-02-25T03:21:54.866Z,31.00
2019-02-25T03:22:30.100Z,27.60
2019-02-25T03:23:05.178Z,29.50
2019-02-25T03:23:40.693Z,30.40
2019-02-25T03:24:15.991Z,29.30
2019-02-25T03:24:51.137Z,34.00
2019-02-25T03:25:26.372Z,32.30
2019-02-25T03:26:01.794Z,29.10
2019-02-25T03:26:37.300Z,34.70
2019-02-25T03:27:13.030Z,33.80
2019-02-25T03:27:48.207Z,32.60
2019-02-25T03:28:23.525Z,32.00
2019-02-25T03:28:58.718Z,28.40
2019-02-25T03:29:34.048Z,31.70
2019-02-25T03:30:09.252Z,36.30
2019-02-25T03:30:44.951Z,33.80
2019-02-25T03:31:20.460Z,32.70
2019-02-25T03:31:55.904Z,33.90
2019-02-25T03:32:31.220Z,30.70
2019-02-25T03:33:06.570Z,28.00
2019-02-25T03:33:41.864Z,26.90
2019-02-25T03:34:17.318Z,30.40
2019-02-25T03:34:52.677Z,33.90
2019-02-25T03:35:28.224Z,33.70
2019-02-25T03:36:03.496Z,35.00
2019-02-25T03:36:39.046Z,34.10
2019-02-25T03:37:14.226Z,29.10
2019-02-25T03:37:49.655Z,26.60
2019-02-25T03:38:25.378Z,35.00
2019-02-25T03:39:00.832Z,58.60
2019-02-25T03:39:36.212Z,38.80
2019-02-25T03:40:11.649Z,33.80
2019-02-25T03:40:47.356Z,30.70
2019-02-25T03:41:22.854Z,25.80
2019-02-25T03:41:58.071Z,28.10
2019-02-25T03:42:33.692Z,35.40
2019-02-25T03:43:08.788Z,35.90
2019-02-25T03:43:44.096Z,28.80
2019-02-25T03:44:19.374Z,26.80
2019-02-25T03:44:54.596Z,33.10
2019-02-25T03:45:29.701Z,34.20
2019-02-25T03:46:06.051Z,33.50
2019-02-25T03:46:41.156Z,33.40
2019-02-25T03:47:16.721Z,35.20
2019-02-25T03:47:51.908Z,34.10
2019-02-25T03:48:27.122Z,32.60
2019-02-25T03:49:02.310Z,32.70
2019-02-25T03:49:37.622Z,33.00
2019-02-25T03:50:13.019Z,31.50
2019-02-25T03:50:48.455Z,28.60
2019-02-25T03:51:23.840Z,31.60
2019-02-25T03:51:58.978Z,34.30
2019-02-25T03:52:34.175Z,31.40
2019-02-25T03:53:09.587Z,34.10
2019-02-25T03:53:44.777Z,32.50
2019-02-25T03:54:20.145Z,28.60
2019-02-25T03:54:55.482Z,31.80
2019-02-25T03:55:30.606Z,30.50
2019-02-25T03:56:05.896Z,33.40
2019-02-25T03:56:41.599Z,38.70
2019-02-25T03:57:17.096Z,31.60
2019-02-25T03:57:52.229Z,31.70
2019-02-25T03:58:27.505Z,31.90
2019-02-25T03:59:03.014Z,29.80
2019-02-25T03:59:38.627Z,34.40
2019-02-25T04:00:14.127Z,39.90
2019-02-25T04:00:49.430Z,39.30
2019-02-25T04:01:24.659Z,35.30
2019-02-25T04:01:59.942Z,31.80
2019-02-25T04:02:35.185Z,30.70
2019-02-25T04:03:10.601Z,31.80
2019-02-25T04:03:46.024Z,33.20
2019-02-25T04:04:21.422Z,33.80
2019-02-25T04:04:56.741Z,33.40
2019-02-25T04:05:32.233Z,31.40
2019-02-25T04:06:07.948Z,35.00
2019-02-25T04:06:43.124Z,33.50
2019-02-25T04:07:18.450Z,31.60
2019-02-25T04:07:54.214Z,32.70
2019-02-25T04:08:29.516Z,38.50
2019-02-25T04:09:04.801Z,35.80
2019-02-25T04:09:40.412Z,33.30
2019-02-25T04:10:15.427Z,33.20
2019-02-25T04:10:50.838Z,36.20
2019-02-25T04:11:26.108Z,37.80
2019-02-25T04:12:01.552Z,34.00
2019-02-25T04:12:37.064Z,30.20
2019-02-25T04:13:12.463Z,31.60
2019-02-25T04:13:47.640Z,35.60
2019-02-25T04:14:23.161Z,40.20
2019-02-25T04:14:58.445Z,37.90
2019-02-25T04:15:33.963Z,37.30
2019-02-25T04:16:09.031Z,33.30
2019-02-25T04:16:44.264Z,32.20
2019-02-25T04:17:19.748Z,29.00
2019-02-25T04:17:55.223Z,43.70
2019-02-25T04:18:30.612Z,40.70
2019-02-25T04:19:06.044Z,39.50
2019-02-25T04:19:41.342Z,38.30
2019-02-25T04:20:16.864Z,39.30
2019-02-25T04:20:52.056Z,32.50
2019-02-25T04:21:27.476Z,34.60
2019-02-25T04:22:02.766Z,40.60
2019-02-25T04:22:38.199Z,40.40
2019-02-25T04:23:13.620Z,39.60
2019-02-25T04:23:48.959Z,34.00
2019-02-25T04:24:24.036Z,32.50
2019-02-25T04:24:59.239Z,39.00
2019-02-25T04:25:34.526Z,41.10
2019-02-25T04:26:09.951Z,38.50
2019-02-25T04:26:45.031Z,33.00
2019-02-25T04:27:20.342Z,35.00
2019-02-25T04:27:56.042Z,38.90
2019-02-25T04:28:31.377Z,40.10
2019-02-25T04:29:06.573Z,43.20
2019-02-25T04:29:41.976Z,38.20
2019-02-25T04:30:17.282Z,34.50
2019-02-25T04:30:52.606Z,32.60
2019-02-25T04:31:27.891Z,36.90
2019-02-25T04:32:03.535Z,37.70
2019-02-25T04:32:38.907Z,38.50
2019-02-25T04:33:14.549Z,37.10
2019-02-25T04:33:50.046Z,36.00
2019-02-25T04:34:25.355Z,35.00
2019-02-25T04:35:00.538Z,33.30
2019-02-25T04:35:36.065Z,36.00
2019-02-25T04:36:11.555Z,41.60
2019-02-25T04:36:46.870Z,40.60
2019-02-25T04:37:22.167Z,35.80
2019-02-25T04:37:57.497Z,31.30
2019-02-25T04:38:33.018Z,31.60
2019-02-25T04:39:08.350Z,34.30
2019-02-25T04:39:43.533Z,35.20
2019-02-25T04:40:18.893Z,37.70
2019-02-25T04:40:54.366Z,35.40
2019-02-25T04:41:30.216Z,36.10
2019-02-25T04:42:05.680Z,35.70
2019-02-25T04:42:41.008Z,31.30
2019-02-25T04:43:16.241Z,31.40
2019-02-25T04:43:51.876Z,36.00
2019-02-25T04:44:27.187Z,37.10
2019-02-25T04:45:02.412Z,36.00
2019-02-25T04:45:37.893Z,36.40
2019-02-25T04:46:13.205Z,34.70
2019-02-25T04:46:48.502Z,35.20
2019-02-25T04:47:23.741Z,39.30
2019-02-25T04:47:59.128Z,36.50
2019-02-25T04:48:34.885Z,41.50
2019-02-25T04:49:10.164Z,37.90
2019-02-25T04:49:45.481Z,31.50
2019-02-25T04:50:20.465Z,32.70
2019-02-25T04:50:56.001Z,35.70
2019-02-25T04:51:31.075Z,33.60
2019-02-25T04:52:06.891Z,34.00
2019-02-25T04:52:42.100Z,36.60
2019-02-25T04:53:17.425Z,40.40
2019-02-25T04:53:52.663Z,41.20
2019-02-25T04:54:27.776Z,38.60
2019-02-25T04:55:03.147Z,37.80
2019-02-25T04:55:38.561Z,36.80
2019-02-25T04:56:13.940Z,35.60
2019-02-25T04:56:49.179Z,36.10
2019-02-25T04:57:24.461Z,36.10
2019-02-25T04:57:59.882Z,35.90
2019-02-25T04:58:35.292Z,36.30
2019-02-25T04:59:10.837Z,34.10
2019-02-25T04:59:46.132Z,31.20
2019-02-25T05:00:21.489Z,32.70
2019-02-25T05:00:56.817Z,33.80
2019-02-25T05:01:32.240Z,37.10
2019-02-25T05:02:07.526Z,34.80
2019-02-25T05:02:43.155Z,34.50
2019-02-25T05:03:18.650Z,35.60
2019-02-25T05:03:54.096Z,32.30
2019-02-25T05:04:29.494Z,36.70
2019-02-25T05:05:05.039Z,45.90
2019-02-25T05:05:40.363Z,39.70
2019-02-25T05:06:15.937Z,38.60
2019-02-25T05:06:51.281Z,37.20
2019-02-25T05:07:26.743Z,35.30
2019-02-25T05:08:02.074Z,32.10
2019-02-25T05:08:37.334Z,36.30
2019-02-25T05:09:12.635Z,47.20
2019-02-25T05:09:48.157Z,38.50
2019-02-25T05:10:23.450Z,33.40
2019-02-25T05:10:58.682Z,30.90
2019-02-25T05:11:33.815Z,29.90
2019-02-25T05:12:09.651Z,34.60
2019-02-25T05:12:45.460Z,38.70
2019-02-25T05:13:20.973Z,40.10
2019-02-25T05:13:56.089Z,35.30
2019-02-25T05:14:31.215Z,36.40
2019-02-25T05:15:06.941Z,35.70
2019-02-25T05:15:42.595Z,34.30
2019-02-25T05:16:17.870Z,29.80
2019-02-25T05:16:53.295Z,33.90
2019-02-25T05:17:28.708Z,38.10
2019-02-25T05:18:04.132Z,34.00
2019-02-25T05:18:39.354Z,32.70
2019-02-25T05:19:18.243Z,32.70
2019-02-25T05:19:53.726Z,29.60
2019-02-25T05:20:28.963Z,27.90
2019-02-25T05:21:04.259Z,33.10
2019-02-25T05:21:39.677Z,36.40
2019-02-25T05:22:14.887Z,40.80
2019-02-25T05:22:50.296Z,34.50
2019-02-25T05:23:25.879Z,31.00
2019-02-25T05:24:01.217Z,29.00
2019-02-25T05:24:36.506Z,30.30
2019-02-25T05:25:12.145Z,32.40
2019-02-25T05:25:47.739Z,35.80
2019-02-25T05:26:23.157Z,38.10
2019-02-25T05:26:58.659Z,34.40
2019-02-25T05:27:33.761Z,32.90
2019-02-25T05:28:09.063Z,30.60
2019-02-25T05:28:44.499Z,31.90
2019-02-25T05:29:20.006Z,34.80
2019-02-25T05:29:55.405Z,41.30
2019-02-25T05:30:30.882Z,39.30
2019-02-25T05:31:06.099Z,35.10
2019-02-25T05:31:41.477Z,34.30
2019-02-25T05:32:17.003Z,33.30
2019-02-25T05:32:52.506Z,38.10
2019-02-25T05:33:27.937Z,37.80
2019-02-25T05:34:03.363Z,35.50
2019-02-25T05:34:38.488Z,31.50
2019-02-25T05:35:13.979Z,29.60
2019-02-25T05:35:49.192Z,31.70
2019-02-25T05:36:24.792Z,31.80
2019-02-25T05:36:59.903Z,33.90
2019-02-25T05:37:35.381Z,38.20
2019-02-25T05:38:10.796Z,36.80
2019-02-25T05:38:46.298Z,33.40
2019-02-25T05:39:21.434Z,34.60
2019-02-25T05:39:56.709Z,31.00
2019-02-25T05:40:32.224Z,28.40
2019-02-25T05:41:07.521Z,35.40
2019-02-25T05:41:42.824Z,36.20
2019-02-25T05:42:18.309Z,30.80
2019-02-25T05:42:53.622Z,28.30
2019-02-25T05:43:28.825Z,31.40
2019-02-25T05:44:04.102Z,40.00
2019-02-25T05:44:39.404Z,36.80
2019-02-25T05:45:14.423Z,28.30
2019-02-25T05:45:49.627Z,25.00
2019-02-25T05:46:24.964Z,29.30
2019-02-25T05:47:00.243Z,31.40
2019-02-25T05:47:35.605Z,33.70
2019-02-25T05:48:10.864Z,36.30
2019-02-25T05:48:46.206Z,33.70
2019-02-25T05:49:21.799Z,33.60
2019-02-25T05:49:57.609Z,34.90
2019-02-25T05:50:33.119Z,34.30
2019-02-25T05:51:08.437Z,37.00
2019-02-25T05:51:43.714Z,34.10
2019-02-25T05:52:18.831Z,32.20
2019-02-25T05:52:54.219Z,36.20
2019-02-25T05:53:29.654Z,38.20
2019-02-25T05:54:05.060Z,31.60
2019-02-25T05:54:40.776Z,36.20
2019-02-25T05:55:16.177Z,37.90
2019-02-25T05:55:51.292Z,35.70
2019-02-25T05:56:26.762Z,32.80
2019-02-25T05:57:02.199Z,28.50
2019-02-25T05:57:37.824Z,31.10
2019-02-25T05:58:13.152Z,32.40
2019-02-25T05:58:48.569Z,33.40
2019-02-25T05:59:24.090Z,36.10
2019-02-25T05:59:59.387Z,34.10
2019-02-25T06:00:34.832Z,33.30
2019-02-25T06:01:09.912Z,32.00
2019-02-25T06:01:45.225Z,38.50
2019-02-25T06:02:20.631Z,35.80
2019-02-25T06:02:55.838Z,34.90
2019-02-25T06:03:31.021Z,33.20
2019-02-25T06:04:06.685Z,32.80
2019-02-25T06:04:41.882Z,38.40
2019-02-25T06:05:17.112Z,37.80
2019-02-25T06:05:52.488Z,44.10
2019-02-25T06:06:28.013Z,36.60
2019-02-25T06:07:03.419Z,34.80
2019-02-25T06:07:38.623Z,36.50
2019-02-25T06:08:14.006Z,34.30
2019-02-25T06:08:49.738Z,33.00
2019-02-25T06:09:24.912Z,35.60
2019-02-25T06:10:00.328Z,34.90
2019-02-25T06:10:35.286Z,33.10
2019-02-25T06:11:10.496Z,34.20
2019-02-25T06:11:45.700Z,39.10
2019-02-25T06:12:21.097Z,34.70
2019-02-25T06:12:56.006Z,36.20
2019-02-25T06:13:31.422Z,34.30
2019-02-25T06:14:06.631Z,34.70
2019-02-25T06:14:42.053Z,36.70
2019-02-25T06:15:17.240Z,34.10
2019-02-25T06:15:52.459Z,35.10
2019-02-25T06:16:27.539Z,34.40
2019-02-25T06:17:03.268Z,32.50
2019-02-25T06:17:38.834Z,30.40
2019-02-25T06:18:14.250Z,29.70
2019-02-25T06:18:49.651Z,32.60
2019-02-25T06:19:24.962Z,33.70
2019-02-25T06:20:00.294Z,35.20
2019-02-25T06:20:35.646Z,35.40
2019-02-25T06:21:10.845Z,34.00
2019-02-25T06:21:46.059Z,33.90
2019-02-25T06:22:21.458Z,31.90
2019-02-25T06:22:56.681Z,32.50
2019-02-25T06:23:32.200Z,32.10
2019-02-25T06:24:07.640Z,32.20
2019-02-25T06:24:42.828Z,29.80
2019-02-25T06:25:18.156Z,34.40
2019-02-25T06:25:53.626Z,33.40
2019-02-25T06:26:28.847Z,31.20
2019-02-25T06:27:04.349Z,28.30
2019-02-25T06:27:39.969Z,32.70
2019-02-25T06:28:15.259Z,35.00
2019-02-25T06:28:50.494Z,36.30
2019-02-25T06:29:26.009Z,33.60
2019-02-25T06:30:01.333Z,32.50
2019-02-25T06:30:36.647Z,36.50
2019-02-25T06:31:12.172Z,32.80
2019-02-25T06:31:47.492Z,34.10
2019-02-25T06:32:23.005Z,37.40
2019-02-25T06:32:58.383Z,39.20
2019-02-25T06:33:33.735Z,35.30
2019-02-25T06:34:09.143Z,32.60
2019-02-25T06:34:44.481Z,34.30
2019-02-25T06:35:19.781Z,31.70
2019-02-25T06:35:55.107Z,32.90
2019-02-25T06:36:30.504Z,35.60
2019-02-25T06:37:05.964Z,33.50
2019-02-25T06:37:41.243Z,29.20
2019-02-25T06:38:16.881Z,33.10
2019-02-25T06:38:52.193Z,38.40
2019-02-25T06:39:27.408Z,34.40
2019-02-25T06:40:02.891Z,30.00
2019-02-25T06:40:38.125Z,33.30
2019-02-25T06:41:13.332Z,33.10
2019-02-25T06:41:48.912Z,30.30
2019-02-25T06:42:24.564Z,32.90
2019-02-25T06:42:59.793Z,31.10
2019-02-25T06:43:35.187Z,28.80
2019-02-25T06:44:10.756Z,36.70
2019-02-25T06:44:46.146Z,40.20
2019-02-25T06:45:21.582Z,38.10
2019-02-25T06:45:56.962Z,35.00
2019-02-25T06:46:32.569Z,30.60
2019-02-25T06:47:07.779Z,30.90
2019-02-25T06:47:43.232Z,34.10
2019-02-25T06:48:18.549Z,37.30
2019-02-25T06:48:54.008Z,36.50
2019-02-25T06:49:29.388Z,36.70
2019-02-25T06:50:04.803Z,35.10
2019-02-25T06:50:40.194Z,33.20
2019-02-25T06:51:15.596Z,32.00
2019-02-25T06:51:50.995Z,34.20
2019-02-25T06:52:26.312Z,37.20
2019-02-25T06:53:01.696Z,32.50
2019-02-25T06:53:37.031Z,30.50
2019-02-25T06:54:12.215Z,29.00
2019-02-25T06:54:47.740Z,30.10
2019-02-25T06:55:22.824Z,32.40
2019-02-25T06:55:58.233Z,37.60
2019-02-25T06:56:33.422Z,36.90
2019-02-25T06:57:08.847Z,31.70
2019-02-25T06:57:44.252Z,33.60
2019-02-25T06:58:19.818Z,31.90
2019-02-25T06:58:55.254Z,30.60
2019-02-25T06:59:30.659Z,34.30
2019-02-25T07:00:05.944Z,31.90
2019-02-25T07:00:41.174Z,31.50
2019-02-25T07:01:16.658Z,33.50
2019-02-25T07:01:52.184Z,31.20
2019-02-25T07:02:27.396Z,32.20
2019-02-25T07:03:02.637Z,32.70
2019-02-25T07:03:38.152Z,35.00
2019-02-25T07:04:13.686Z,35.40
2019-02-25T07:04:49.250Z,35.00
2019-02-25T07:05:24.787Z,32.40
2019-02-25T07:05:59.963Z,29.90
2019-02-25T07:06:35.689Z,31.20
2019-02-25T07:07:11.196Z,35.60
2019-02-25T07:07:46.522Z,34.30
2019-02-25T07:08:21.837Z,33.00
2019-02-25T07:08:57.368Z,29.60
2019-02-25T07:09:32.790Z,33.60
2019-02-25T07:10:08.337Z,34.50
2019-02-25T07:10:43.417Z,31.30
2019-02-25T07:11:18.844Z,33.80
2019-02-25T07:11:54.143Z,37.30
2019-02-25T07:12:29.491Z,34.10
2019-02-25T07:13:04.752Z,31.40
2019-02-25T07:13:40.285Z,35.90
2019-02-25T07:14:15.997Z,32.80
2019-02-25T07:14:51.959Z,34.00
2019-02-25T07:15:27.267Z,33.60
2019-02-25T07:16:02.538Z,33.60
2019-02-25T07:16:37.820Z,35.90
2019-02-25T07:17:13.269Z,38.30
2019-02-25T07:17:48.762Z,36.90
2019-02-25T07:18:24.048Z,35.20
2019-02-25T07:18:59.432Z,36.60
2019-02-25T07:19:34.862Z,35.00
2019-02-25T07:20:10.229Z,32.60
2019-02-25T07:20:45.953Z,28.90
2019-02-25T07:21:21.437Z,28.00
2019-02-25T07:21:56.755Z,30.80
2019-02-25T07:22:31.943Z,32.70
2019-02-25T07:23:07.273Z,33.70
2019-02-25T07:23:42.658Z,32.10
2019-02-25T07:24:17.969Z,29.40
2019-02-25T07:24:53.461Z,29.10
2019-02-25T07:25:28.741Z,31.50
2019-02-25T07:26:04.038Z,31.90
2019-02-25T07:26:39.359Z,32.00
2019-02-25T07:27:14.443Z,31.00
2019-02-25T07:27:49.763Z,31.00
2019-02-25T07:28:25.354Z,29.90
2019-02-25T07:29:00.972Z,37.20
2019-02-25T07:29:36.276Z,38.50
2019-02-25T07:30:11.661Z,27.00
2019-02-25T07:30:47.117Z,27.20
2019-02-25T07:31:22.453Z,27.80
2019-02-25T07:31:57.749Z,29.30
2019-02-25T07:32:32.989Z,29.10
2019-02-25T07:33:08.305Z,26.60
2019-02-25T07:33:43.554Z,25.10
2019-02-25T07:34:18.757Z,25.00
2019-02-25T07:34:53.868Z,26.70
2019-02-25T07:35:29.352Z,29.30